Terminal Aerodrome Forecast
Issued by NWS Boston, MA

Home | Current Version | Previous Version | Text Only | Print | Product List | Glossary On
Versions: 1 2 3 4 5 6 7 8 9 10 11 12 13 14 15 16 17 18 19 20 21 22 23 24 25 26
000
FTUS41 KBOX 201124
TAFBOS
TAF
KBOS 201124Z 2012/2118 22010G20KT P6SM BKN015
     FM201600 24011G25KT P6SM VCSH BKN025
     FM201800 25011G22KT P6SM SHRA VCTS OVC030CB
     FM202000 29008KT P6SM BKN050
     FM210000 33005KT P6SM SCT080
     FM211700 25005KT P6SM FEW250=

USA.gov is the U.S. government's official web portal to all federal, state and local government web resources and services.